createdAt,value
2018-11-13T00:00:19.741Z,35.23
2018-11-13T00:02:49.253Z,36.48
2018-11-13T00:05:18.177Z,36.63
2018-11-13T00:07:47.101Z,37.60
2018-11-13T00:10:31.733Z,37.80
2018-11-13T00:13:00.697Z,35.65
2018-11-13T00:15:29.638Z,34.10
2018-11-13T00:17:58.553Z,33.87
2018-11-13T00:20:27.462Z,32.23
2018-11-13T00:22:56.444Z,32.25
2018-11-13T00:25:25.361Z,33.10
2018-11-13T00:27:54.296Z,35.50
2018-11-13T00:30:24.511Z,33.55
2018-11-13T00:32:53.450Z,33.65
2018-11-13T00:35:22.912Z,35.40
2018-11-13T00:37:51.941Z,35.85
2018-11-13T00:40:20.889Z,35.10
2018-11-13T00:42:50.225Z,36.15
2018-11-13T00:45:19.262Z,35.85
2018-11-13T00:47:48.108Z,36.40
2018-11-13T00:50:18.413Z,35.78
2018-11-13T00:52:47.669Z,34.27
2018-11-13T00:55:16.785Z,36.03
2018-11-13T00:57:45.932Z,34.10
2018-11-13T01:00:16.765Z,35.55
2018-11-13T01:02:45.828Z,34.55
2018-11-13T01:05:17.854Z,34.95
2018-11-13T01:07:47.529Z,37.15
2018-11-13T01:10:17.413Z,37.85
2018-11-13T01:12:47.043Z,36.98
2018-11-13T01:15:17.504Z,35.35
2018-11-13T01:17:47.066Z,37.17
2018-11-13T01:20:16.764Z,35.85
2018-11-13T01:22:45.709Z,37.08
2018-11-13T01:25:15.584Z,39.40
2018-11-13T01:27:44.953Z,38.48
2018-11-13T01:30:14.873Z,39.40
2018-11-13T01:32:44.365Z,37.10
2018-11-13T01:35:14.426Z,38.15
2018-11-13T01:37:43.425Z,38.42
2018-11-13T01:40:13.709Z,36.75
2018-11-13T01:42:42.888Z,37.53
2018-11-13T01:45:13.325Z,39.30
2018-11-13T01:47:42.240Z,38.53
2018-11-13T01:50:11.640Z,39.98
2018-11-13T01:52:40.541Z,38.97
2018-11-13T01:55:11.288Z,40.55
2018-11-13T01:57:40.218Z,40.00
2018-11-13T02:00:18.087Z,40.63
2018-11-13T02:02:48.122Z,39.38
2018-11-13T02:05:17.896Z,40.03
2018-11-13T02:07:46.844Z,40.08
2018-11-13T02:10:16.044Z,41.42
2018-11-13T02:12:45.329Z,40.70
2018-11-13T02:15:14.238Z,40.55
2018-11-13T02:17:43.417Z,38.90
2018-11-13T02:20:14.673Z,39.20
2018-11-13T02:22:43.749Z,38.73
2018-11-13T02:25:13.996Z,38.63
2018-11-13T02:27:43.171Z,37.67
2018-11-13T02:30:14.445Z,37.85
2018-11-13T02:32:43.941Z,38.02
2018-11-13T02:35:13.267Z,37.38
2018-11-13T02:37:42.508Z,38.17
2018-11-13T02:40:11.457Z,38.95
2018-11-13T02:42:40.367Z,37.78
2018-11-13T02:45:12.876Z,40.10
2018-11-13T02:47:42.069Z,41.15
2018-11-13T02:50:12.705Z,42.95
2018-11-13T02:52:42.012Z,42.90
2018-11-13T02:55:11.538Z,42.90
2018-11-13T02:57:40.893Z,41.42
2018-11-13T03:00:14.933Z,42.08
2018-11-13T03:02:43.825Z,41.83
2018-11-13T03:05:17.034Z,41.92
2018-11-13T03:07:45.934Z,40.12
2018-11-13T03:10:15.940Z,41.15
2018-11-13T03:12:44.890Z,41.33
2018-11-13T03:15:15.036Z,40.67
2018-11-13T03:17:44.055Z,41.80
2018-11-13T03:20:14.567Z,42.88
2018-11-13T03:22:44.040Z,42.73
2018-11-13T03:25:15.540Z,43.20
2018-11-13T03:27:44.449Z,44.10
2018-11-13T03:30:25.784Z,44.38
2018-11-13T03:32:55.036Z,44.10
2018-11-13T03:35:23.970Z,45.30
2018-11-13T03:37:52.833Z,43.78
2018-11-13T03:40:21.748Z,43.90
2018-11-13T03:42:51.050Z,43.20
2018-11-13T03:45:20.216Z,41.60
2018-11-13T03:47:49.147Z,44.97
2018-11-13T03:50:20.152Z,45.43
2018-11-13T03:52:49.121Z,43.60
2018-11-13T03:55:18.545Z,46.63
2018-11-13T03:57:48.176Z,47.98
2018-11-13T04:00:19.409Z,47.70
2018-11-13T04:02:48.380Z,46.88
2018-11-13T04:05:18.129Z,48.70
2018-11-13T04:07:48.325Z,51.23
2018-11-13T04:10:18.232Z,50.92
2018-11-13T04:12:47.175Z,52.90
2018-11-13T04:15:17.792Z,51.80
2018-11-13T04:17:46.724Z,53.28
2018-11-13T04:20:16.853Z,52.05
2018-11-13T04:22:46.072Z,51.83
2018-11-13T04:25:15.014Z,50.67
2018-11-13T04:27:43.920Z,53.20
2018-11-13T04:30:14.657Z,53.55
2018-11-13T04:32:43.788Z,51.18
2018-11-13T04:35:13.868Z,50.80
2018-11-13T04:37:42.796Z,53.40
2018-11-13T04:40:15.573Z,52.40
2018-11-13T04:42:45.805Z,51.87
2018-11-13T04:45:15.837Z,53.10
2018-11-13T04:47:46.442Z,51.37
2018-11-13T04:50:16.632Z,52.67
2018-11-13T04:52:45.656Z,51.10
2018-11-13T04:55:15.025Z,51.23
2018-11-13T04:57:44.962Z,49.63
2018-11-13T05:00:15.674Z,49.53
2018-11-13T05:02:45.335Z,46.90
2018-11-13T05:05:15.176Z,47.90
2018-11-13T05:07:50.404Z,47.85
2018-11-13T05:10:19.373Z,48.90
2018-11-13T05:12:48.832Z,48.28
2018-11-13T05:15:17.736Z,49.20
2018-11-13T05:17:47.124Z,46.10
2018-11-13T05:20:16.829Z,48.08
2018-11-13T05:22:45.740Z,48.02
2018-11-13T05:25:16.044Z,50.17
2018-11-13T05:27:45.022Z,48.60
2018-11-13T05:30:19.367Z,47.83
2018-11-13T05:32:48.354Z,49.97
2018-11-13T05:35:18.466Z,46.90
2018-11-13T05:37:47.764Z,48.96
2018-11-13T05:40:20.137Z,47.10
2018-11-13T05:42:49.049Z,46.33
2018-11-13T05:45:21.623Z,46.30
2018-11-13T05:47:50.549Z,46.40
2018-11-13T05:50:20.011Z,46.10
2018-11-13T05:52:50.426Z,48.00
2018-11-13T05:55:19.357Z,47.73
2018-11-13T05:57:48.513Z,47.00
2018-11-13T06:00:23.870Z,44.85
2018-11-13T06:02:52.781Z,44.90
2018-11-13T06:05:21.719Z,43.52
2018-11-13T06:07:50.618Z,44.73
2018-11-13T06:10:19.545Z,44.03
2018-11-13T06:12:48.477Z,44.35
2018-11-13T06:15:18.323Z,43.42
2018-11-13T06:17:47.236Z,44.90
2018-11-13T06:20:16.487Z,44.93
2018-11-13T06:22:45.470Z,44.30
2018-11-13T06:25:16.525Z,45.30
2018-11-13T06:27:46.626Z,42.78
2018-11-13T06:30:19.313Z,45.40
2018-11-13T06:32:48.806Z,42.60
2018-11-13T06:35:17.809Z,43.70
2018-11-13T06:37:46.684Z,41.98
2018-11-13T06:40:15.658Z,43.25
2018-11-13T06:42:44.585Z,44.03
2018-11-13T06:45:15.928Z,40.57
2018-11-13T06:47:45.633Z,41.33
2018-11-13T06:50:14.666Z,40.50
2018-11-13T06:52:44.337Z,41.18
2018-11-13T06:55:20.317Z,41.58
2018-11-13T06:57:49.241Z,40.43
2018-11-13T07:00:18.553Z,40.90
2018-11-13T07:02:47.511Z,39.57
2018-11-13T07:05:17.491Z,40.40
2018-11-13T07:07:46.683Z,39.20
2018-11-13T07:10:17.820Z,38.67
2018-11-13T07:12:48.437Z,39.67
2018-11-13T07:15:21.550Z,38.00
2018-11-13T07:17:51.852Z,36.13
2018-11-13T07:20:21.997Z,36.20
2018-11-13T07:22:50.960Z,35.03
2018-11-13T07:25:20.241Z,36.23
2018-11-13T07:27:49.203Z,34.20
2018-11-13T07:30:19.001Z,34.40
2018-11-13T07:32:47.910Z,32.13
2018-11-13T07:35:18.217Z,30.43
2018-11-13T07:37:52.838Z,30.20
2018-11-13T07:40:22.138Z,30.37
2018-11-13T07:42:51.133Z,28.50
2018-11-13T07:45:20.706Z,27.30
2018-11-13T07:47:50.075Z,27.90
2018-11-13T07:50:18.844Z,26.10
2018-11-13T07:52:47.761Z,25.40
2018-11-13T07:55:17.388Z,23.27
2018-11-13T07:57:46.500Z,23.62
2018-11-13T08:00:17.620Z,23.47
2018-11-13T08:02:51.016Z,22.10
2018-11-13T08:05:19.944Z,21.25
2018-11-13T08:07:48.901Z,20.23
2018-11-13T08:10:18.337Z,20.87
2018-11-13T08:12:47.352Z,19.67
2018-11-13T08:15:17.403Z,19.83
2018-11-13T08:17:46.342Z,18.77
2018-11-13T08:20:16.116Z,19.30
2018-11-13T08:22:45.320Z,16.90
2018-11-13T08:25:14.324Z,16.20
2018-11-13T08:27:43.674Z,15.83
2018-11-13T08:30:17.441Z,17.03
2018-11-13T08:32:47.025Z,15.50
2018-11-13T08:35:16.283Z,15.30
2018-11-13T08:37:45.509Z,14.10
2018-11-13T08:40:15.821Z,14.43
2018-11-13T08:42:45.442Z,13.23
2018-11-13T08:45:14.985Z,14.47
2018-11-13T08:47:44.450Z,13.75
2018-11-13T08:50:13.943Z,13.20
2018-11-13T08:52:43.778Z,13.37
2018-11-13T08:55:13.163Z,11.93
2018-11-13T08:57:42.175Z,11.37
2018-11-13T09:00:13.077Z,10.77
2018-11-13T09:02:42.395Z,9.70
2018-11-13T09:05:11.628Z,10.93
2018-11-13T09:07:40.888Z,10.35
2018-11-13T09:10:11.029Z,9.40
2018-11-13T09:12:40.495Z,8.63
2018-11-13T09:15:11.217Z,8.40
2018-11-13T09:17:40.253Z,7.83
2018-11-13T09:20:10.985Z,7.62
2018-11-13T09:22:40.000Z,6.90
2018-11-13T09:25:11.345Z,7.27
2018-11-13T09:27:40.316Z,7.33
2018-11-13T09:30:11.636Z,7.83
2018-11-13T09:32:41.146Z,7.65
2018-11-13T09:35:11.217Z,6.60
2018-11-13T09:37:40.091Z,7.35
2018-11-13T09:40:11.613Z,6.10
2018-11-13T09:42:41.097Z,6.55
2018-11-13T09:45:10.701Z,6.80
2018-11-13T09:47:39.871Z,6.10
2018-11-13T09:50:10.392Z,6.10
2018-11-13T09:52:39.569Z,6.42
2018-11-13T09:55:10.557Z,5.97
2018-11-13T09:57:39.458Z,6.40
2018-11-13T10:00:11.026Z,6.05
2018-11-13T10:02:40.486Z,5.75
2018-11-13T10:05:09.610Z,5.20
2018-11-13T10:07:37.703Z,5.70
2018-11-13T10:10:07.946Z,5.57
2018-11-13T10:12:36.871Z,5.78
2018-11-13T10:15:08.490Z,6.45
2018-11-13T10:17:37.419Z,6.43
2018-11-13T10:20:06.772Z,5.53
2018-11-13T10:22:35.672Z,6.10
2018-11-13T10:25:05.049Z,5.87
2018-11-13T10:27:33.991Z,5.43
2018-11-13T10:30:02.878Z,5.90
2018-11-13T10:32:31.781Z,6.20
2018-11-13T10:35:00.710Z,6.20
2018-11-13T10:37:29.600Z,6.07
2018-11-13T10:39:58.559Z,6.08
2018-11-13T10:42:27.460Z,5.60
2018-11-13T10:44:57.065Z,6.27
2018-11-13T10:47:25.973Z,6.20
2018-11-13T10:49:54.916Z,5.70
2018-11-13T10:52:23.816Z,5.80
2018-11-13T10:54:52.743Z,6.00
2018-11-13T10:57:21.686Z,5.93
2018-11-13T10:59:50.617Z,6.05
2018-11-13T11:02:24.798Z,5.70
2018-11-13T11:04:53.678Z,6.17
2018-11-13T11:07:22.591Z,5.13
2018-11-13T11:09:51.505Z,4.63
2018-11-13T11:12:20.413Z,4.53
2018-11-13T11:14:49.333Z,4.03
2018-11-13T11:17:18.259Z,4.20
2018-11-13T11:19:47.259Z,3.90
2018-11-13T11:22:16.152Z,4.00
2018-11-13T11:24:45.086Z,3.95
2018-11-13T11:27:13.994Z,3.73
2018-11-13T11:29:42.908Z,3.40
2018-11-13T11:32:11.837Z,4.40
2018-11-13T11:34:40.753Z,4.17
2018-11-13T11:37:09.641Z,3.95
2018-11-13T11:39:38.584Z,4.62
2018-11-13T11:42:07.496Z,3.83
2018-11-13T11:44:36.535Z,3.70
2018-11-13T11:47:05.521Z,3.80
2018-11-13T11:49:34.424Z,4.30
2018-11-13T11:52:03.297Z,3.97
2018-11-13T11:54:32.214Z,4.37
2018-11-13T11:57:01.107Z,4.40
2018-11-13T11:59:30.024Z,6.50
2018-11-13T12:01:58.943Z,4.10
2018-11-13T12:04:27.860Z,4.40
2018-11-13T12:06:56.764Z,3.47
2018-11-13T12:09:25.657Z,3.30
2018-11-13T12:11:54.561Z,3.50
2018-11-13T12:14:23.474Z,3.20
2018-11-13T12:16:53.968Z,3.32
2018-11-13T12:19:22.867Z,3.08
2018-11-13T12:21:51.787Z,2.93
2018-11-13T12:24:20.666Z,2.63
2018-11-13T12:26:49.558Z,2.62
2018-11-13T12:29:18.453Z,3.08
2018-11-13T12:31:47.365Z,3.00
2018-11-13T12:34:16.328Z,2.67
2018-11-13T12:36:45.235Z,2.90
2018-11-13T12:39:14.149Z,2.90
2018-11-13T12:41:43.057Z,2.73
2018-11-13T12:44:11.947Z,2.70
2018-11-13T12:46:40.918Z,2.90
2018-11-13T12:49:09.886Z,2.90
2018-11-13T12:52:45.984Z,2.90
2018-11-13T12:55:19.925Z,3.70
2018-11-13T12:57:48.829Z,2.60
2018-11-13T13:00:20.325Z,2.57
2018-11-13T13:02:49.349Z,2.33
2018-11-13T13:05:18.373Z,2.40
2018-11-13T13:07:47.330Z,2.30
2018-11-13T13:10:17.382Z,2.17
2018-11-13T13:12:46.417Z,1.60
2018-11-13T13:15:16.722Z,1.73
2018-11-13T13:17:46.018Z,1.60
2018-11-13T13:20:22.064Z,1.20
2018-11-13T13:22:51.260Z,1.20
2018-11-13T13:25:21.178Z,1.00
2018-11-13T13:27:50.234Z,1.00
2018-11-13T13:30:21.284Z,1.00
2018-11-13T13:32:50.441Z,0.93
2018-11-13T13:35:33.018Z,1.13
2018-11-13T13:38:02.037Z,1.10
2018-11-13T13:40:31.034Z,1.17
2018-11-13T13:42:59.945Z,1.10
2018-11-13T13:45:29.177Z,1.20
2018-11-13T13:47:58.697Z,1.10
2018-11-13T13:50:27.584Z,1.37
2018-11-13T13:52:56.793Z,1.60
2018-11-13T13:55:27.167Z,1.80
2018-11-13T13:57:56.054Z,1.80
2018-11-13T14:00:25.124Z,1.80
2018-11-13T14:02:53.857Z,1.90
2018-11-13T14:05:22.785Z,1.60
2018-11-13T14:07:51.705Z,2.00
2018-11-13T14:10:20.597Z,2.40
2018-11-13T14:12:49.548Z,1.82
2018-11-13T14:15:18.611Z,2.77
2018-11-13T14:17:47.489Z,2.50
2018-11-13T14:20:18.563Z,2.30
2018-11-13T14:22:47.517Z,2.60
2018-11-13T14:25:16.492Z,2.70
2018-11-13T14:27:46.013Z,2.60
2018-11-13T14:30:19.687Z,3.03
2018-11-13T14:32:49.333Z,3.13
2018-11-13T14:35:18.450Z,2.20
2018-11-13T14:37:47.765Z,2.50
2018-11-13T14:40:29.893Z,2.63
2018-11-13T14:42:59.312Z,2.50
2018-11-13T14:45:28.741Z,2.30
2018-11-13T14:47:57.892Z,2.30
2018-11-13T14:50:28.034Z,2.83
2018-11-13T14:52:57.386Z,2.40
2018-11-13T14:55:28.582Z,2.40
2018-11-13T14:57:58.457Z,3.35
2018-11-13T15:00:28.813Z,2.50
2018-11-13T15:02:58.772Z,2.30
2018-11-13T15:05:29.300Z,2.62
2018-11-13T15:07:59.689Z,2.90
2018-11-13T15:10:37.601Z,3.00
2018-11-13T15:13:06.953Z,2.60
2018-11-13T15:15:35.873Z,2.63
2018-11-13T15:18:05.361Z,2.70
2018-11-13T15:20:34.261Z,2.70
2018-11-13T15:23:03.281Z,2.42
2018-11-13T15:25:32.224Z,2.40
2018-11-13T15:28:01.121Z,2.60
2018-11-13T15:30:31.437Z,2.68
2018-11-13T15:33:02.718Z,2.40
2018-11-13T15:35:31.650Z,3.10
2018-11-13T15:38:00.579Z,2.87
2018-11-13T15:40:30.389Z,2.98
2018-11-13T15:42:59.353Z,2.70
2018-11-13T15:45:28.245Z,2.90
2018-11-13T15:47:58.427Z,2.90
2018-11-13T15:50:28.625Z,3.40
2018-11-13T15:52:57.750Z,3.23
2018-11-13T15:55:26.725Z,3.37
2018-11-13T15:57:56.033Z,3.50
2018-11-13T16:00:27.348Z,3.20
2018-11-13T16:02:57.227Z,4.00
2018-11-13T16:05:27.926Z,3.77
2018-11-13T16:07:58.641Z,3.72
2018-11-13T16:10:27.643Z,3.60
2018-11-13T16:12:56.829Z,3.98
2018-11-13T16:15:26.406Z,3.95
2018-11-13T16:17:56.349Z,3.90
2018-11-13T16:20:25.734Z,3.77
2018-11-13T16:22:54.644Z,3.57
2018-11-13T16:25:23.913Z,3.60
2018-11-13T16:27:52.877Z,3.70
2018-11-13T16:30:23.137Z,4.10
2018-11-13T16:32:52.493Z,3.27
2018-11-13T16:35:22.607Z,3.35
2018-11-13T16:37:52.483Z,3.33
2018-11-13T16:40:23.525Z,3.43
2018-11-13T16:42:52.421Z,3.27
2018-11-13T16:45:22.632Z,3.60
2018-11-13T16:47:52.142Z,3.80
2018-11-13T16:50:22.377Z,4.22
2018-11-13T16:52:51.304Z,4.30
2018-11-13T16:55:25.537Z,3.65
2018-11-13T16:57:55.080Z,3.50
2018-11-13T17:00:24.463Z,4.07
2018-11-13T17:02:53.294Z,4.03
2018-11-13T17:05:23.168Z,3.63
2018-11-13T17:07:52.056Z,4.10
2018-11-13T17:10:22.496Z,4.40
2018-11-13T17:12:51.782Z,3.52
2018-11-13T17:15:21.992Z,3.30
2018-11-13T17:17:51.830Z,2.90
2018-11-13T17:20:20.801Z,2.90
2018-11-13T17:22:50.439Z,3.35
2018-11-13T17:25:20.958Z,2.80
2018-11-13T17:27:50.929Z,3.62
2018-11-13T17:30:23.285Z,3.40
2018-11-13T17:32:52.545Z,2.83
2018-11-13T17:35:22.842Z,3.13
2018-11-13T17:37:52.544Z,3.00
2018-11-13T17:40:22.721Z,3.07
2018-11-13T17:42:52.781Z,2.77
2018-11-13T17:45:23.119Z,3.00
2018-11-13T17:47:52.035Z,3.30
2018-11-13T17:50:24.209Z,3.20
2018-11-13T17:52:53.441Z,3.10
2018-11-13T17:55:22.886Z,3.60
2018-11-13T17:57:53.273Z,3.20
2018-11-13T18:00:27.717Z,3.60
2018-11-13T18:02:56.661Z,3.30
2018-11-13T18:05:26.532Z,2.80
2018-11-13T18:07:56.299Z,3.00
2018-11-13T18:10:25.722Z,3.40
2018-11-13T18:12:54.751Z,3.10
2018-11-13T18:15:26.067Z,3.40
2018-11-13T18:17:55.029Z,3.42
2018-11-13T18:20:26.194Z,3.40
2018-11-13T18:22:55.194Z,3.52
2018-11-13T18:25:24.113Z,3.00
2018-11-13T18:27:54.367Z,3.35
2018-11-13T18:30:25.447Z,3.00
2018-11-13T18:32:54.918Z,3.20
2018-11-13T18:35:27.873Z,2.70
2018-11-13T18:37:57.801Z,3.55
2018-11-13T18:40:27.657Z,2.93
2018-11-13T18:42:57.901Z,2.80
2018-11-13T18:45:29.017Z,3.57
2018-11-13T18:47:57.939Z,3.33
2018-11-13T18:50:29.274Z,3.30
2018-11-13T18:52:58.520Z,3.60
2018-11-13T18:55:27.476Z,3.37
2018-11-13T18:57:56.613Z,3.50
2018-11-13T19:00:28.909Z,3.50
2018-11-13T19:02:58.702Z,3.50
2018-11-13T19:05:28.421Z,3.15
2018-11-13T19:07:57.532Z,4.10
2018-11-13T19:10:31.438Z,3.60
2018-11-13T19:13:01.634Z,3.15
2018-11-13T19:15:32.117Z,5.05
2018-11-13T19:18:01.132Z,3.90
2018-11-13T19:20:30.390Z,3.20
2018-11-13T19:22:59.297Z,3.53
2018-11-13T19:25:30.821Z,3.50
2018-11-13T19:28:00.401Z,3.30
2018-11-13T19:30:29.451Z,3.40
2018-11-13T19:32:58.343Z,3.80
2018-11-13T19:35:27.504Z,3.60
2018-11-13T19:37:56.308Z,3.40
2018-11-13T19:40:26.358Z,3.63
2018-11-13T19:42:56.313Z,3.83
2018-11-13T19:45:26.337Z,3.20
2018-11-13T19:47:55.275Z,3.60
2018-11-13T19:50:25.761Z,3.65
2018-11-13T19:52:55.363Z,4.08
2018-11-13T19:55:24.937Z,3.90
2018-11-13T19:57:54.944Z,3.80
2018-11-13T20:00:28.971Z,4.17
2018-11-13T20:02:59.181Z,4.20
2018-11-13T20:05:28.994Z,4.00
2018-11-13T20:07:58.040Z,4.47
2018-11-13T20:10:30.429Z,3.98
2018-11-13T20:13:01.618Z,4.83
2018-11-13T20:15:31.141Z,4.70
2018-11-13T20:18:00.065Z,4.77
2018-11-13T20:20:31.016Z,4.90
2018-11-13T20:23:00.980Z,4.87
2018-11-13T20:25:31.213Z,4.50
2018-11-13T20:28:00.268Z,5.25
2018-11-13T20:30:31.663Z,5.35
2018-11-13T20:33:00.666Z,5.27
2018-11-13T20:35:29.585Z,5.03
2018-11-13T20:37:59.117Z,5.40
2018-11-13T20:40:29.321Z,5.43
2018-11-13T20:42:59.432Z,5.43
2018-11-13T20:45:28.405Z,5.10
2018-11-13T20:47:57.349Z,5.40
2018-11-13T20:50:27.641Z,6.50
2018-11-13T20:52:56.574Z,5.75
2018-11-13T20:55:25.497Z,6.20
2018-11-13T20:57:54.504Z,6.00
2018-11-13T21:00:27.565Z,7.03
2018-11-13T21:02:56.596Z,6.53
2018-11-13T21:05:25.644Z,6.87
2018-11-13T21:07:54.695Z,7.03
2018-11-13T21:10:27.719Z,7.00
2018-11-13T21:12:56.689Z,7.25
2018-11-13T21:15:25.674Z,7.28
2018-11-13T21:17:54.616Z,6.73
2018-11-13T21:20:23.679Z,7.07
2018-11-13T21:22:52.576Z,6.72
2018-11-13T21:25:22.827Z,7.90
2018-11-13T21:27:54.217Z,7.03
2018-11-13T21:30:23.422Z,7.90
2018-11-13T21:32:53.010Z,8.68
2018-11-13T21:35:21.912Z,7.75
2018-11-13T21:37:52.199Z,8.18
2018-11-13T21:40:22.425Z,8.00
2018-11-13T21:42:52.282Z,8.00
2018-11-13T21:45:22.157Z,8.05
2018-11-13T21:47:52.122Z,7.98
2018-11-13T21:50:22.489Z,8.40
2018-11-13T21:52:51.389Z,8.95
2018-11-13T21:55:21.524Z,9.57
2018-11-13T21:57:50.401Z,9.48
2018-11-13T22:00:23.225Z,8.88
2018-11-13T22:02:54.792Z,9.00
2018-11-13T22:05:24.517Z,9.27
2018-11-13T22:07:53.417Z,9.03
2018-11-13T22:10:22.350Z,9.10
2018-11-13T22:12:51.246Z,10.50
2018-11-13T22:15:21.542Z,10.30
2018-11-13T22:17:50.404Z,9.80
2018-11-13T22:20:20.009Z,10.53
2018-11-13T22:22:49.905Z,10.23
2018-11-13T22:25:20.756Z,10.10
2018-11-13T22:27:50.765Z,11.03
2018-11-13T22:30:20.909Z,10.78
2018-11-13T22:32:49.820Z,10.03
2018-11-13T22:35:20.045Z,10.82
2018-11-13T22:37:48.973Z,11.08
2018-11-13T22:40:20.128Z,10.70
2018-11-13T22:42:49.325Z,10.82
2018-11-13T22:45:19.687Z,11.00
2018-11-13T22:47:48.618Z,10.65
2018-11-13T22:50:25.631Z,12.10
2018-11-13T22:52:54.897Z,10.60
2018-11-13T22:55:23.961Z,11.00
2018-11-13T22:57:54.470Z,13.20
2018-11-13T23:00:35.471Z,12.13
2018-11-13T23:03:05.259Z,13.05
2018-11-13T23:05:34.187Z,13.00
2018-11-13T23:08:03.089Z,12.68
2018-11-13T23:10:32.172Z,12.20
2018-11-13T23:13:01.089Z,12.15
2018-11-13T23:15:30.021Z,12.33
2018-11-13T23:17:58.923Z,13.05
2018-11-13T23:20:27.841Z,12.98
2018-11-13T23:22:57.663Z,13.53
2018-11-13T23:25:26.581Z,13.78
2018-11-13T23:27:55.539Z,14.28
2018-11-13T23:30:25.698Z,14.47
2018-11-13T23:32:55.409Z,16.00
2018-11-13T23:35:24.309Z,15.10
2018-11-13T23:37:57.448Z,14.68
2018-11-13T23:40:27.468Z,14.75
2018-11-13T23:42:56.401Z,15.50
2018-11-13T23:45:26.165Z,15.13
2018-11-13T23:47:55.066Z,15.32
2018-11-13T23:50:24.420Z,15.98
2018-11-13T23:52:53.177Z,15.50
2018-11-13T23:55:22.106Z,15.30
2018-11-13T23:57:51.000Z,16.67
